createdAt,value
2019-03-02T00:00:29.203Z,22.70
2019-03-02T00:02:56.890Z,22.60
2019-03-02T00:05:24.362Z,22.60
2019-03-02T00:07:50.877Z,22.60
2019-03-02T00:10:16.810Z,22.50
2019-03-02T00:12:43.176Z,22.50
2019-03-02T00:15:09.121Z,22.40
2019-03-02T00:17:36.576Z,22.40
2019-03-02T00:20:02.740Z,22.40
2019-03-02T00:22:47.014Z,22.40
2019-03-02T00:25:12.974Z,22.40
2019-03-02T00:27:38.942Z,22.30
2019-03-02T00:30:04.907Z,22.30
2019-03-02T00:32:31.136Z,22.30
2019-03-02T00:34:57.125Z,22.30
2019-03-02T00:37:23.063Z,22.30
2019-03-02T00:39:50.595Z,22.20
2019-03-02T00:42:17.839Z,22.20
2019-03-02T00:44:44.624Z,22.20
2019-03-02T00:47:10.690Z,22.10
2019-03-02T00:49:36.730Z,22.10
2019-03-02T00:52:02.689Z,22.10
2019-03-02T00:54:28.656Z,22.10
2019-03-02T00:56:54.617Z,22.00
2019-03-02T00:59:20.579Z,22.00
2019-03-02T01:01:46.531Z,22.00
2019-03-02T01:04:12.613Z,22.00
2019-03-02T01:06:38.605Z,22.00
2019-03-02T01:09:08.079Z,22.00
2019-03-02T01:11:32.897Z,21.90
2019-03-02T01:14:00.030Z,21.90
2019-03-02T01:16:26.074Z,21.90
2019-03-02T01:18:52.014Z,21.90
2019-03-02T01:21:18.000Z,21.90
2019-03-02T01:23:44.081Z,21.80
2019-03-02T01:26:10.039Z,21.80
2019-03-02T01:28:35.988Z,21.80
2019-03-02T01:31:05.130Z,21.80
2019-03-02T01:33:29.837Z,21.80
2019-03-02T01:35:56.845Z,21.80
2019-03-02T01:38:23.156Z,21.70
2019-03-02T01:40:49.124Z,21.70
2019-03-02T01:43:15.177Z,21.70
2019-03-02T01:45:41.125Z,21.70
2019-03-02T01:48:07.097Z,21.70
2019-03-02T01:50:33.051Z,21.60
2019-03-02T01:52:59.115Z,21.60
2019-03-02T01:55:27.764Z,21.60
2019-03-02T01:57:53.205Z,21.60
2019-03-02T02:00:21.353Z,21.60
2019-03-02T02:02:47.425Z,21.60
2019-03-02T02:05:13.508Z,21.60
2019-03-02T02:07:39.496Z,21.60
2019-03-02T02:10:05.855Z,21.60
2019-03-02T02:12:32.337Z,21.60
2019-03-02T02:14:58.295Z,21.50
2019-03-02T02:17:24.253Z,21.50
2019-03-02T02:19:50.241Z,21.50
2019-03-02T02:22:16.213Z,21.50
2019-03-02T02:24:42.173Z,21.50
2019-03-02T02:27:08.119Z,21.50
2019-03-02T02:29:34.085Z,21.50
2019-03-02T02:32:00.045Z,21.40
2019-03-02T02:34:26.097Z,21.40
2019-03-02T02:36:53.018Z,21.40
2019-03-02T02:39:19.910Z,21.40
2019-03-02T02:41:45.835Z,21.40
2019-03-02T02:44:11.793Z,21.40
2019-03-02T02:46:37.834Z,21.40
2019-03-02T02:49:05.274Z,21.40
2019-03-02T02:51:31.642Z,21.40
2019-03-02T02:53:57.596Z,21.40
2019-03-02T02:56:23.666Z,21.40
2019-03-02T02:58:55.725Z,21.40
2019-03-02T03:01:17.473Z,21.40
2019-03-02T03:03:43.405Z,21.30
2019-03-02T03:06:09.370Z,21.30
2019-03-02T03:08:35.331Z,21.30
2019-03-02T03:11:01.614Z,21.30
2019-03-02T03:13:29.138Z,21.30
2019-03-02T03:15:55.079Z,21.30
2019-03-02T03:18:21.165Z,21.20
2019-03-02T03:20:50.211Z,21.30
2019-03-02T03:23:19.865Z,21.20
2019-03-02T03:25:46.572Z,21.20
2019-03-02T03:28:12.583Z,21.20
2019-03-02T03:30:39.874Z,21.20
2019-03-02T03:33:26.157Z,21.20
2019-03-02T03:35:56.098Z,22.10
2019-03-02T03:38:20.077Z,21.20
2019-03-02T03:40:46.026Z,21.20
2019-03-02T03:43:12.001Z,21.20
2019-03-02T03:45:43.073Z,21.20
2019-03-02T03:48:05.848Z,21.20
2019-03-02T03:50:31.904Z,21.20
2019-03-02T03:52:57.877Z,21.20
2019-03-02T03:55:27.378Z,21.10
2019-03-02T03:57:55.291Z,21.10
2019-03-02T04:00:19.557Z,21.10
2019-03-02T04:02:46.045Z,21.10
2019-03-02T04:05:12.092Z,21.10
2019-03-02T04:07:38.049Z,21.10
2019-03-02T04:10:04.009Z,21.10
2019-03-02T04:12:30.079Z,21.10
2019-03-02T04:14:56.951Z,21.10
2019-03-02T04:17:23.921Z,21.10
2019-03-02T04:19:49.856Z,21.10
2019-03-02T04:22:15.969Z,21.10
2019-03-02T04:24:41.917Z,21.10
2019-03-02T04:27:10.929Z,21.00
2019-03-02T04:29:35.817Z,21.00
2019-03-02T04:32:01.788Z,21.00
2019-03-02T04:34:27.838Z,21.00
2019-03-02T04:36:53.799Z,21.00
2019-03-02T04:39:19.875Z,21.00
2019-03-02T04:41:45.799Z,21.00
2019-03-02T04:44:11.748Z,21.00
2019-03-02T04:46:37.700Z,21.00
2019-03-02T04:49:03.664Z,21.00
2019-03-02T04:51:29.619Z,21.00
2019-03-02T04:53:58.059Z,20.90
2019-03-02T04:56:24.179Z,20.90
2019-03-02T04:58:51.103Z,21.00
2019-03-02T05:01:17.055Z,20.90
2019-03-02T05:03:43.027Z,20.90
2019-03-02T05:06:08.983Z,20.90
2019-03-02T05:08:37.578Z,20.90
2019-03-02T05:11:03.649Z,20.90
2019-03-02T05:13:30.468Z,20.90
2019-03-02T05:15:56.403Z,20.90
2019-03-02T05:18:22.336Z,20.90
2019-03-02T05:20:48.273Z,20.90
2019-03-02T05:23:14.217Z,20.90
2019-03-02T05:25:40.187Z,20.90
2019-03-02T05:28:07.383Z,20.90
2019-03-02T05:30:34.013Z,20.80
2019-03-02T05:32:59.966Z,20.90
2019-03-02T05:35:25.903Z,20.90
2019-03-02T05:37:51.862Z,20.90
2019-03-02T05:40:17.811Z,20.80
2019-03-02T05:42:48.542Z,20.80
2019-03-02T05:45:11.610Z,20.90
2019-03-02T05:47:37.558Z,20.90
2019-03-02T05:50:03.517Z,20.80
2019-03-02T05:52:29.723Z,20.80
2019-03-02T05:54:55.673Z,20.80
2019-03-02T05:57:21.627Z,20.80
2019-03-02T05:59:47.597Z,20.80
2019-03-02T06:02:13.873Z,20.80
2019-03-02T06:04:41.586Z,20.80
2019-03-02T06:07:07.546Z,20.80
2019-03-02T06:09:33.483Z,20.80
2019-03-02T06:11:59.562Z,20.80
2019-03-02T06:14:26.699Z,20.80
2019-03-02T06:16:53.729Z,20.80
2019-03-02T06:19:23.547Z,20.80
2019-03-02T06:21:49.233Z,20.80
2019-03-02T06:24:15.543Z,20.80
2019-03-02T06:26:41.710Z,20.80
2019-03-02T06:29:07.678Z,20.80
2019-03-02T06:31:33.739Z,20.90
2019-03-02T06:33:59.697Z,20.80
2019-03-02T06:36:25.670Z,21.00
2019-03-02T06:38:51.649Z,21.00
2019-03-02T06:41:17.681Z,21.00
2019-03-02T06:43:43.653Z,21.00
2019-03-02T06:46:09.604Z,21.00
2019-03-02T06:48:35.563Z,21.00
2019-03-02T06:51:02.381Z,21.10
2019-03-02T06:53:28.487Z,21.10
2019-03-02T06:55:56.891Z,21.10
2019-03-02T06:58:22.613Z,21.10
2019-03-02T07:00:50.195Z,21.20
2019-03-02T07:03:16.229Z,21.20
2019-03-02T07:05:42.359Z,21.30
2019-03-02T07:08:08.318Z,21.30
2019-03-02T07:10:34.261Z,21.40
2019-03-02T07:13:02.104Z,21.40
2019-03-02T07:15:28.053Z,21.50
2019-03-02T07:18:08.230Z,21.50
2019-03-02T07:20:36.172Z,21.50
2019-03-02T07:23:02.103Z,21.60
2019-03-02T07:25:28.039Z,21.60
2019-03-02T07:27:53.988Z,21.60
2019-03-02T07:30:20.051Z,21.60
2019-03-02T07:32:46.567Z,21.70
2019-03-02T07:35:15.856Z,21.70
2019-03-02T07:37:40.550Z,21.80
2019-03-02T07:40:09.052Z,21.80
2019-03-02T07:42:35.991Z,21.80
2019-03-02T07:45:01.979Z,21.90
2019-03-02T07:47:27.949Z,21.90
2019-03-02T07:49:54.001Z,21.90
2019-03-02T07:52:20.073Z,22.00
2019-03-02T07:54:56.017Z,22.00
2019-03-02T07:57:13.865Z,22.10
2019-03-02T07:59:39.832Z,22.10
2019-03-02T08:02:07.332Z,22.10
2019-03-02T08:04:35.022Z,22.10
2019-03-02T08:07:01.573Z,22.10
2019-03-02T08:09:28.228Z,22.00
2019-03-02T08:11:54.157Z,22.10
2019-03-02T08:14:20.133Z,22.00
2019-03-02T08:16:46.089Z,22.00
2019-03-02T08:19:12.043Z,22.00
2019-03-02T08:21:38.013Z,22.10
2019-03-02T08:24:04.077Z,22.10
2019-03-02T08:26:30.058Z,22.10
2019-03-02T08:28:56.104Z,22.10
2019-03-02T08:31:22.055Z,22.20
2019-03-02T08:33:48.009Z,22.20
2019-03-02T08:36:16.897Z,22.20
2019-03-02T08:38:41.790Z,22.30
2019-03-02T08:41:07.751Z,22.30
2019-03-02T08:43:33.706Z,22.30
2019-03-02T08:45:59.631Z,22.30
2019-03-02T08:48:25.580Z,22.30
2019-03-02T08:50:53.146Z,22.30
2019-03-02T08:53:19.380Z,22.30
2019-03-02T08:55:45.416Z,22.30
2019-03-02T08:58:11.366Z,22.30
2019-03-02T09:00:38.915Z,22.30
2019-03-02T09:03:05.168Z,22.40
2019-03-02T09:05:43.586Z,22.40
2019-03-02T09:07:58.966Z,22.40
2019-03-02T09:10:24.937Z,22.40
2019-03-02T09:12:51.005Z,22.40
2019-03-02T09:15:16.933Z,22.40
2019-03-02T09:17:42.888Z,22.40
2019-03-02T09:20:10.440Z,22.40
2019-03-02T09:22:36.741Z,22.40
2019-03-02T09:25:02.701Z,22.40
2019-03-02T09:27:28.661Z,22.40
2019-03-02T09:29:55.846Z,22.40
2019-03-02T09:32:22.998Z,22.40
2019-03-02T09:34:55.399Z,22.40
2019-03-02T09:37:21.457Z,22.30
2019-03-02T09:39:47.420Z,22.30
2019-03-02T09:42:13.395Z,22.30
2019-03-02T09:44:39.368Z,22.40
2019-03-02T09:47:09.082Z,22.40
2019-03-02T09:49:33.863Z,22.40
2019-03-02T09:52:01.106Z,22.40
2019-03-02T09:54:27.039Z,22.50
2019-03-02T09:56:52.969Z,22.50
2019-03-02T09:59:18.995Z,22.50
2019-03-02T10:01:45.039Z,22.50
2019-03-02T10:04:10.993Z,22.50
2019-03-02T10:06:36.941Z,22.50
2019-03-02T10:09:04.312Z,22.50
2019-03-02T10:11:30.353Z,22.50
2019-03-02T10:13:56.311Z,22.60
2019-03-02T10:16:22.275Z,22.60
2019-03-02T10:18:49.638Z,22.60
2019-03-02T10:21:16.076Z,22.60
2019-03-02T10:23:42.863Z,22.60
2019-03-02T10:26:08.982Z,22.70
2019-03-02T10:28:35.436Z,22.60
2019-03-02T10:31:02.586Z,22.70
2019-03-02T10:33:32.241Z,22.70
2019-03-02T10:35:57.213Z,22.70
2019-03-02T10:38:23.159Z,22.70
2019-03-02T10:40:49.139Z,22.70
2019-03-02T10:43:15.085Z,22.70
2019-03-02T10:45:42.445Z,22.80
2019-03-02T10:48:08.517Z,22.80
2019-03-02T10:50:34.559Z,22.80
2019-03-02T10:53:00.517Z,22.80
2019-03-02T10:55:26.575Z,22.80
2019-03-02T10:57:52.609Z,22.80
2019-03-02T11:00:20.521Z,22.80
2019-03-02T11:02:46.469Z,22.80
2019-03-02T11:05:26.567Z,22.80
2019-03-02T11:08:03.832Z,22.70
2019-03-02T11:10:51.868Z,22.70
2019-03-02T11:13:19.341Z,22.70
2019-03-02T11:15:52.385Z,22.70
2019-03-02T11:18:37.348Z,22.70
2019-03-02T11:21:11.267Z,22.70
2019-03-02T11:23:48.461Z,22.70
2019-03-02T11:26:28.509Z,22.80
2019-03-02T11:28:59.553Z,22.80
2019-03-02T11:31:27.417Z,22.80
2019-03-02T11:33:55.271Z,22.80
2019-03-02T11:36:32.493Z,22.80
2019-03-02T11:39:00.453Z,22.90
2019-03-02T11:41:46.407Z,22.90
2019-03-02T11:44:14.289Z,22.90
2019-03-02T11:46:51.132Z,22.90
2019-03-02T11:49:30.122Z,22.90
2019-03-02T11:52:08.173Z,22.90
2019-03-02T11:54:36.041Z,22.90
2019-03-02T11:57:03.900Z,23.00
2019-03-02T11:59:48.733Z,22.90
2019-03-02T12:02:23.851Z,23.00
2019-03-02T12:04:53.217Z,23.00
2019-03-02T12:07:21.193Z,23.00
2019-03-02T12:09:55.158Z,23.00
2019-03-02T12:12:23.436Z,22.90
2019-03-02T12:15:03.743Z,22.90
2019-03-02T12:17:32.009Z,22.90
2019-03-02T12:20:08.567Z,22.80
2019-03-02T12:22:49.755Z,22.80
2019-03-02T12:25:20.703Z,22.80
2019-03-02T12:27:55.040Z,22.80
2019-03-02T12:30:22.281Z,22.80
2019-03-02T12:32:57.299Z,22.80
2019-03-02T12:35:28.015Z,22.90
2019-03-02T12:38:01.666Z,22.90
2019-03-02T12:40:36.217Z,22.90
2019-03-02T12:43:17.550Z,22.90
2019-03-02T12:45:45.417Z,23.00
2019-03-02T12:48:22.615Z,23.00
2019-03-02T12:51:02.916Z,23.00
2019-03-02T12:53:33.983Z,23.00
2019-03-02T12:56:13.946Z,23.00
2019-03-02T12:58:45.026Z,23.00
2019-03-02T13:01:12.877Z,23.00
2019-03-02T13:03:47.846Z,23.00
2019-03-02T13:06:18.883Z,23.10
2019-03-02T13:08:59.316Z,23.00
2019-03-02T13:11:34.583Z,23.10
2019-03-02T13:14:17.818Z,23.10
2019-03-02T13:17:03.708Z,23.10
2019-03-02T13:19:31.834Z,23.10
2019-03-02T13:21:59.704Z,23.10
2019-03-02T13:24:37.020Z,23.10
2019-03-02T13:27:11.241Z,23.10
2019-03-02T13:29:56.088Z,23.10
2019-03-02T13:32:27.546Z,23.10
2019-03-02T13:35:04.547Z,23.10
2019-03-02T13:37:53.025Z,23.10
2019-03-02T13:40:26.286Z,23.10
2019-03-02T13:43:04.612Z,23.00
2019-03-02T13:45:32.918Z,23.00
2019-03-02T13:48:00.856Z,23.00
2019-03-02T13:50:47.297Z,23.00
2019-03-02T13:53:15.772Z,23.10
2019-03-02T13:55:45.997Z,23.10
2019-03-02T13:58:31.630Z,23.10
2019-03-02T14:00:59.479Z,23.20
2019-03-02T14:03:27.356Z,23.10
2019-03-02T14:06:04.419Z,23.20
2019-03-02T14:08:32.277Z,23.20
2019-03-02T14:11:03.180Z,23.20
2019-03-02T14:13:36.999Z,23.20
2019-03-02T14:16:10.681Z,23.20
2019-03-02T14:18:47.877Z,23.20
2019-03-02T14:21:24.742Z,23.20
2019-03-02T14:23:52.641Z,23.20
2019-03-02T14:26:23.253Z,23.20
2019-03-02T14:28:51.098Z,23.20
2019-03-02T14:31:21.964Z,23.20
2019-03-02T14:33:55.630Z,23.20
2019-03-02T14:36:30.545Z,23.20
2019-03-02T14:39:16.146Z,23.20
2019-03-02T14:42:04.050Z,23.10
2019-03-02T14:44:45.923Z,23.10
2019-03-02T14:47:25.935Z,23.10
2019-03-02T14:50:07.985Z,23.00
2019-03-02T14:52:44.723Z,23.00
2019-03-02T14:55:12.645Z,22.90
2019-03-02T14:57:40.501Z,22.80
2019-03-02T15:00:08.345Z,22.80
2019-03-02T15:02:49.058Z,22.80
2019-03-02T15:05:31.047Z,22.80
2019-03-02T15:08:01.905Z,22.80
2019-03-02T15:10:32.845Z,22.80
2019-03-02T15:13:09.799Z,22.70
2019-03-02T15:15:40.761Z,22.70
2019-03-02T15:18:29.121Z,22.70
2019-03-02T15:21:07.621Z,22.70
2019-03-02T15:23:49.353Z,22.70
2019-03-02T15:26:17.201Z,22.60
2019-03-02T15:28:47.857Z,22.60
2019-03-02T15:31:21.803Z,22.60
2019-03-02T15:33:49.647Z,22.60
2019-03-02T15:36:20.533Z,22.60
2019-03-02T15:39:03.759Z,22.60
2019-03-02T15:41:37.785Z,22.60
2019-03-02T15:44:10.721Z,22.50
2019-03-02T15:46:41.491Z,22.50
2019-03-02T15:49:18.606Z,22.50
2019-03-02T15:52:04.270Z,22.50
2019-03-02T15:54:45.049Z,22.40
2019-03-02T15:57:21.899Z,22.40
2019-03-02T15:59:59.014Z,22.40
2019-03-02T16:02:27.201Z,22.40
2019-03-02T16:04:58.150Z,22.30
2019-03-02T16:07:25.988Z,22.30
2019-03-02T16:10:11.665Z,22.30
2019-03-02T16:12:52.205Z,22.30
2019-03-02T16:15:25.956Z,22.20
2019-03-02T16:18:12.920Z,22.20
2019-03-02T16:20:42.584Z,22.20
2019-03-02T16:23:18.954Z,22.20
2019-03-02T16:25:52.625Z,22.20
2019-03-02T16:28:23.274Z,22.10
2019-03-02T16:30:53.939Z,22.10
2019-03-02T16:33:27.291Z,22.10
2019-03-02T16:36:11.636Z,22.00
2019-03-02T16:38:42.365Z,22.00
2019-03-02T16:41:19.342Z,22.00
2019-03-02T16:44:04.536Z,22.00
2019-03-02T16:46:35.015Z,22.00
2019-03-02T16:49:11.364Z,22.00
2019-03-02T16:51:56.097Z,21.90
2019-03-02T16:54:39.376Z,21.90
2019-03-02T16:57:30.227Z,21.90
2019-03-02T16:59:54.710Z,21.90
2019-03-02T17:02:39.367Z,21.80
2019-03-02T17:05:07.247Z,21.80
2019-03-02T17:07:55.016Z,21.80
2019-03-02T17:10:36.959Z,21.80
2019-03-02T17:13:17.174Z,21.80
2019-03-02T17:15:45.133Z,21.70
2019-03-02T17:18:21.814Z,21.70
2019-03-02T17:20:54.833Z,21.70
2019-03-02T17:23:42.730Z,21.70
2019-03-02T17:26:10.610Z,21.60
2019-03-02T17:28:44.417Z,21.70
2019-03-02T17:31:12.286Z,21.70
2019-03-02T17:33:58.533Z,21.60
2019-03-02T17:36:44.610Z,21.60
2019-03-02T17:39:15.362Z,21.60
2019-03-02T17:41:58.407Z,21.60
2019-03-02T17:44:26.261Z,21.60
2019-03-02T17:47:10.723Z,21.60
2019-03-02T17:49:46.057Z,21.60
2019-03-02T17:52:18.034Z,21.60
2019-03-02T17:54:55.318Z,21.60
2019-03-02T17:57:35.190Z,21.60
2019-03-02T18:00:15.850Z,21.50
2019-03-02T18:02:51.523Z,21.50
2019-03-02T18:05:19.417Z,21.50
2019-03-02T18:07:50.294Z,21.50
2019-03-02T18:10:18.189Z,21.50
2019-03-02T18:12:46.032Z,21.50
2019-03-02T18:15:13.914Z,21.50
2019-03-02T18:17:51.994Z,21.50
2019-03-02T18:20:20.858Z,21.50
2019-03-02T18:22:47.791Z,21.40
2019-03-02T18:25:13.978Z,21.40
2019-03-02T18:27:39.923Z,21.40
2019-03-02T18:30:06.293Z,21.40
2019-03-02T18:32:34.193Z,21.40
2019-03-02T18:35:02.729Z,21.40
2019-03-02T18:37:30.615Z,21.40
2019-03-02T18:39:58.242Z,21.40
2019-03-02T18:42:27.025Z,21.40
2019-03-02T18:44:54.686Z,21.40
2019-03-02T18:47:21.388Z,21.40
2019-03-02T18:49:52.901Z,21.30
2019-03-02T18:52:32.780Z,21.30
2019-03-02T18:54:58.730Z,21.30
2019-03-02T18:57:24.698Z,21.30
2019-03-02T18:59:50.633Z,21.30
2019-03-02T19:02:16.598Z,21.30
2019-03-02T19:04:42.558Z,21.30
2019-03-02T19:07:08.507Z,21.30
2019-03-02T19:09:34.471Z,21.30
2019-03-02T19:12:00.524Z,21.30
2019-03-02T19:14:26.469Z,21.20
2019-03-02T19:16:52.461Z,21.20
2019-03-02T19:19:18.401Z,21.20
2019-03-02T19:21:44.355Z,21.20
2019-03-02T19:24:10.413Z,21.20
2019-03-02T19:26:36.370Z,21.20
2019-03-02T19:29:02.321Z,21.20
2019-03-02T19:31:28.256Z,21.20
2019-03-02T19:33:54.235Z,21.20
2019-03-02T19:36:20.191Z,21.20
2019-03-02T19:38:46.249Z,21.20
2019-03-02T19:41:12.190Z,21.20
2019-03-02T19:43:38.155Z,21.20
2019-03-02T19:46:04.200Z,21.20
2019-03-02T19:48:30.149Z,21.10
2019-03-02T19:50:56.094Z,21.10
2019-03-02T19:53:22.042Z,21.10
2019-03-02T19:55:47.991Z,21.20
2019-03-02T19:58:13.955Z,21.20
2019-03-02T20:00:39.948Z,21.10
2019-03-02T20:03:05.888Z,21.10
2019-03-02T20:05:31.837Z,21.10
2019-03-02T20:07:57.794Z,21.10
2019-03-02T20:10:24.054Z,21.10
2019-03-02T20:12:50.031Z,21.10
2019-03-02T20:15:16.087Z,21.10
2019-03-02T20:17:42.069Z,21.10
2019-03-02T20:20:08.052Z,21.10
2019-03-02T20:22:34.095Z,21.10
2019-03-02T20:25:00.296Z,21.10
2019-03-02T20:27:26.415Z,21.10
2019-03-02T20:29:52.399Z,21.10
2019-03-02T20:32:19.275Z,21.10
2019-03-02T20:34:45.307Z,21.10
2019-03-02T20:37:11.256Z,21.10
2019-03-02T20:39:37.230Z,21.10
2019-03-02T20:42:03.192Z,21.10
2019-03-02T20:44:29.253Z,21.00
2019-03-02T20:46:55.325Z,21.10
2019-03-02T20:49:21.394Z,21.00
2019-03-02T20:51:47.369Z,21.00
2019-03-02T20:54:13.318Z,21.00
2019-03-02T20:56:39.265Z,21.00
2019-03-02T20:59:05.233Z,21.00
2019-03-02T21:01:31.395Z,21.00
2019-03-02T21:03:57.339Z,21.00
2019-03-02T21:06:23.272Z,21.00
2019-03-02T21:08:49.228Z,21.00
2019-03-02T21:11:15.310Z,21.00
2019-03-02T21:13:41.357Z,21.00
2019-03-02T21:16:07.344Z,20.90
2019-03-02T21:18:33.390Z,20.90
2019-03-02T21:20:59.328Z,20.90
2019-03-02T21:23:25.270Z,20.90
2019-03-02T21:25:51.208Z,20.90
2019-03-02T21:28:17.147Z,20.90
2019-03-02T21:30:43.228Z,20.90
2019-03-02T21:33:09.218Z,20.90
2019-03-02T21:35:35.274Z,20.90
2019-03-02T21:38:01.240Z,20.90
2019-03-02T21:40:27.188Z,20.90
2019-03-02T21:42:53.157Z,20.90
2019-03-02T21:45:19.099Z,20.90
2019-03-02T21:47:45.076Z,20.90
2019-03-02T21:50:11.132Z,20.80
2019-03-02T21:52:37.375Z,20.80
2019-03-02T21:55:03.336Z,20.90
2019-03-02T21:57:29.272Z,20.90
2019-03-02T21:59:55.246Z,20.80
2019-03-02T22:02:25.480Z,20.80
2019-03-02T22:04:51.449Z,20.80
2019-03-02T22:07:17.497Z,20.80
2019-03-02T22:09:43.553Z,20.80
2019-03-02T22:12:09.514Z,20.80
2019-03-02T22:14:35.494Z,20.80
2019-03-02T22:17:03.240Z,20.80
2019-03-02T22:19:29.226Z,20.80
2019-03-02T22:21:55.263Z,20.80
2019-03-02T22:24:21.234Z,20.80
2019-03-02T22:26:47.286Z,20.80
2019-03-02T22:29:13.248Z,20.70
2019-03-02T22:31:39.237Z,20.70
2019-03-02T22:34:05.296Z,20.80
2019-03-02T22:36:31.349Z,20.70
2019-03-02T22:38:57.311Z,20.70
2019-03-02T22:41:23.241Z,20.70
2019-03-02T22:43:49.189Z,20.70
2019-03-02T22:46:15.177Z,20.70
2019-03-02T22:48:41.209Z,20.70
2019-03-02T22:51:07.150Z,20.70
2019-03-02T22:53:33.089Z,20.70
2019-03-02T22:55:59.037Z,20.70
2019-03-02T22:58:26.927Z,20.60
2019-03-02T23:00:52.892Z,20.60
2019-03-02T23:03:18.947Z,20.70
2019-03-02T23:05:44.885Z,20.60
2019-03-02T23:08:10.837Z,20.60
2019-03-02T23:10:36.768Z,20.60
2019-03-02T23:13:02.703Z,20.70
2019-03-02T23:15:28.705Z,20.60
2019-03-02T23:17:56.697Z,20.60
2019-03-02T23:20:22.641Z,20.60
2019-03-02T23:22:48.599Z,20.60
2019-03-02T23:25:14.555Z,20.70
2019-03-02T23:27:40.548Z,20.60
2019-03-02T23:30:06.516Z,20.60
2019-03-02T23:32:34.388Z,20.60
2019-03-02T23:35:00.374Z,20.60
2019-03-02T23:37:26.434Z,20.60
2019-03-02T23:39:52.367Z,20.60
2019-03-02T23:42:18.566Z,20.60
2019-03-02T23:44:44.509Z,20.60
2019-03-02T23:47:10.597Z,20.60
2019-03-02T23:49:36.655Z,20.60
2019-03-02T23:52:02.595Z,20.60
2019-03-02T23:54:28.560Z,20.50
2019-03-02T23:56:54.496Z,20.60
2019-03-02T23:59:20.453Z,20.50
